sensor_id;sensor_type;location;lat;lon;timestamp;pressure;altitude;pressure_sealevel;temperature;humidity
50356;BME280;36264;51.296;-0.602;2023-06-04T00:00:24;102091.28;;;17.91;41.87
50356;BME280;36264;51.296;-0.602;2023-06-04T00:02:50;102087.19;;;17.82;41.99
50356;BME280;36264;51.296;-0.602;2023-06-04T00:05:15;102089.88;;;17.81;42.07
50356;BME280;36264;51.296;-0.602;2023-06-04T00:07:41;102087.66;;;17.70;42.00
50356;BME280;36264;51.296;-0.602;2023-06-04T00:10:06;102099.00;;;17.72;42.34
50356;BME280;36264;51.296;-0.602;2023-06-04T00:12:32;102084.56;;;17.60;42.36
50356;BME280;36264;51.296;-0.602;2023-06-04T00:14:57;102091.78;;;17.55;42.66
50356;BME280;36264;51.296;-0.602;2023-06-04T00:17:23;102090.44;;;17.45;42.81
50356;BME280;36264;51.296;-0.602;2023-06-04T00:19:48;102090.59;;;17.40;42.96
50356;BME280;36264;51.296;-0.602;2023-06-04T00:22:13;102089.06;;;17.34;43.09
50356;BME280;36264;51.296;-0.602;2023-06-04T00:24:39;102091.13;;;17.26;43.19
50356;BME280;36264;51.296;-0.602;2023-06-04T00:27:07;102091.00;;;17.29;43.16
50356;BME280;36264;51.296;-0.602;2023-06-04T00:29:32;102088.06;;;17.15;43.33
50356;BME280;36264;51.296;-0.602;2023-06-04T00:31:57;102085.72;;;17.07;43.42
50356;BME280;36264;51.296;-0.602;2023-06-04T00:34:23;102087.66;;;17.02;43.40
50356;BME280;36264;51.296;-0.602;2023-06-04T00:36:48;102086.94;;;16.97;43.81
50356;BME280;36264;51.296;-0.602;2023-06-04T00:39:14;102089.81;;;16.91;44.00
50356;BME280;36264;51.296;-0.602;2023-06-04T00:41:39;102088.94;;;16.90;43.63
50356;BME280;36264;51.296;-0.602;2023-06-04T00:44:05;102081.31;;;16.82;43.85
50356;BME280;36264;51.296;-0.602;2023-06-04T00:46:32;102095.25;;;16.84;44.11
50356;BME280;36264;51.296;-0.602;2023-06-04T00:48:57;102092.91;;;16.77;44.35
50356;BME280;36264;51.296;-0.602;2023-06-04T00:51:23;102089.53;;;16.73;44.17
50356;BME280;36264;51.296;-0.602;2023-06-04T00:53:49;102100.13;;;16.70;44.44
50356;BME280;36264;51.296;-0.602;2023-06-04T00:56:15;102092.75;;;16.56;44.65
50356;BME280;36264;51.296;-0.602;2023-06-04T00:58:41;102106.91;;;16.51;44.96
50356;BME280;36264;51.296;-0.602;2023-06-04T01:01:15;102100.75;;;16.52;45.17
50356;BME280;36264;51.296;-0.602;2023-06-04T01:03:45;102101.88;;;16.44;45.13
50356;BME280;36264;51.296;-0.602;2023-06-04T01:06:23;102111.63;;;16.41;46.23
50356;BME280;36264;51.296;-0.602;2023-06-04T01:08:53;102109.28;;;16.32;45.79
50356;BME280;36264;51.296;-0.602;2023-06-04T01:11:31;102102.50;;;16.26;46.37
50356;BME280;36264;51.296;-0.602;2023-06-04T01:13:56;102103.00;;;16.10;45.91
50356;BME280;36264;51.296;-0.602;2023-06-04T01:16:22;102093.63;;;16.03;46.07
50356;BME280;36264;51.296;-0.602;2023-06-04T01:18:48;102087.66;;;15.98;46.38
50356;BME280;36264;51.296;-0.602;2023-06-04T01:21:16;102081.84;;;15.90;46.46
50356;BME280;36264;51.296;-0.602;2023-06-04T01:23:49;102087.03;;;15.91;46.70
50356;BME280;36264;51.296;-0.602;2023-06-04T01:26:28;102087.25;;;15.84;46.73
50356;BME280;36264;51.296;-0.602;2023-06-04T01:28:55;102076.34;;;15.69;46.91
50356;BME280;36264;51.296;-0.602;2023-06-04T01:31:22;102084.25;;;15.68;47.10
50356;BME280;36264;51.296;-0.602;2023-06-04T01:33:53;102084.34;;;15.65;47.30
50356;BME280;36264;51.296;-0.602;2023-06-04T01:36:19;102083.75;;;15.55;47.62
50356;BME280;36264;51.296;-0.602;2023-06-04T01:38:45;102078.72;;;15.49;47.72
50356;BME280;36264;51.296;-0.602;2023-06-04T01:41:10;102073.69;;;15.41;47.69
50356;BME280;36264;51.296;-0.602;2023-06-04T01:43:36;102079.16;;;15.33;47.94
50356;BME280;36264;51.296;-0.602;2023-06-04T01:46:02;102074.09;;;15.27;48.17
50356;BME280;36264;51.296;-0.602;2023-06-04T01:48:28;102030.47;;;14.98;48.24
50356;BME280;36264;51.296;-0.602;2023-06-04T01:50:54;102081.25;;;15.22;48.02
50356;BME280;36264;51.296;-0.602;2023-06-04T01:53:20;102078.72;;;15.19;48.17
50356;BME280;36264;51.296;-0.602;2023-06-04T01:55:45;102061.53;;;15.10;48.25
50356;BME280;36264;51.296;-0.602;2023-06-04T01:58:11;102079.63;;;15.18;48.34
50356;BME280;36264;51.296;-0.602;2023-06-04T02:00:36;102069.22;;;15.16;48.17
50356;BME280;36264;51.296;-0.602;2023-06-04T02:03:01;102074.34;;;15.19;48.30
50356;BME280;36264;51.296;-0.602;2023-06-04T02:05:27;102081.31;;;15.19;48.31
50356;BME280;36264;51.296;-0.602;2023-06-04T02:07:52;102078.75;;;15.17;48.55
50356;BME280;36264;51.296;-0.602;2023-06-04T02:10:19;102086.47;;;15.22;48.63
50356;BME280;36264;51.296;-0.602;2023-06-04T02:12:56;102076.94;;;15.21;49.32
50356;BME280;36264;51.296;-0.602;2023-06-04T02:15:23;102073.03;;;15.04;49.16
50356;BME280;36264;51.296;-0.602;2023-06-04T02:17:49;102077.38;;;15.06;49.26
50356;BME280;36264;51.296;-0.602;2023-06-04T02:20:15;102073.09;;;15.01;49.24
50356;BME280;36264;51.296;-0.602;2023-06-04T02:22:41;102072.25;;;15.01;49.05
50356;BME280;36264;51.296;-0.602;2023-06-04T02:25:07;102074.84;;;15.02;49.48
50356;BME280;36264;51.296;-0.602;2023-06-04T02:27:34;102076.69;;;14.99;49.40
50356;BME280;36264;51.296;-0.602;2023-06-04T02:30:00;102075.97;;;14.92;49.73
50356;BME280;36264;51.296;-0.602;2023-06-04T02:32:26;102065.59;;;14.89;49.65
50356;BME280;36264;51.296;-0.602;2023-06-04T02:34:51;102080.31;;;14.93;49.73
50356;BME280;36264;51.296;-0.602;2023-06-04T02:37:17;102079.56;;;14.90;49.80
50356;BME280;36264;51.296;-0.602;2023-06-04T02:39:42;102081.34;;;14.88;49.95
50356;BME280;36264;51.296;-0.602;2023-06-04T02:42:08;102083.16;;;14.85;50.11
50356;BME280;36264;51.296;-0.602;2023-06-04T02:44:33;102072.81;;;14.81;50.21
50356;BME280;36264;51.296;-0.602;2023-06-04T02:46:59;102081.66;;;14.77;50.68
50356;BME280;36264;51.296;-0.602;2023-06-04T02:49:24;102076.50;;;14.74;50.42
50356;BME280;36264;51.296;-0.602;2023-06-04T02:51:50;102085.16;;;14.76;50.36
50356;BME280;36264;51.296;-0.602;2023-06-04T02:54:16;102092.16;;;14.75;50.63
50356;BME280;36264;51.296;-0.602;2023-06-04T02:56:42;102084.31;;;14.75;50.42
50356;BME280;36264;51.296;-0.602;2023-06-04T02:59:08;102075.63;;;14.73;50.47
50356;BME280;36264;51.296;-0.602;2023-06-04T03:01:34;102077.28;;;14.77;50.46
50356;BME280;36264;51.296;-0.602;2023-06-04T03:04:00;102085.19;;;14.74;50.61
50356;BME280;36264;51.296;-0.602;2023-06-04T03:06:30;102078.25;;;14.73;50.82
50356;BME280;36264;51.296;-0.602;2023-06-04T03:08:57;102082.72;;;14.70;51.06
50356;BME280;36264;51.296;-0.602;2023-06-04T03:11:23;102080.25;;;14.63;51.75
50356;BME280;36264;51.296;-0.602;2023-06-04T03:13:48;102081.94;;;14.66;51.72
50356;BME280;36264;51.296;-0.602;2023-06-04T03:16:14;102079.41;;;14.63;51.77
50356;BME280;36264;51.296;-0.602;2023-06-04T03:18:41;102083.78;;;14.62;51.94
50356;BME280;36264;51.296;-0.602;2023-06-04T03:21:07;102082.09;;;14.58;52.48
50356;BME280;36264;51.296;-0.602;2023-06-04T03:23:33;102080.34;;;14.59;52.02
50356;BME280;36264;51.296;-0.602;2023-06-04T03:26:01;102095.13;;;14.61;52.15
50356;BME280;36264;51.296;-0.602;2023-06-04T03:28:26;102093.53;;;14.54;52.29
50356;BME280;36264;51.296;-0.602;2023-06-04T03:30:52;102098.75;;;14.54;52.41
50356;BME280;36264;51.296;-0.602;2023-06-04T03:33:17;102088.31;;;14.54;52.59
50356;BME280;36264;51.296;-0.602;2023-06-04T03:35:42;102089.25;;;14.52;52.92
50356;BME280;36264;51.296;-0.602;2023-06-04T03:38:08;102088.38;;;14.51;52.80
50356;BME280;36264;51.296;-0.602;2023-06-04T03:40:33;102084.97;;;14.49;52.96
50356;BME280;36264;51.296;-0.602;2023-06-04T03:42:59;102085.03;;;14.46;53.10
50356;BME280;36264;51.296;-0.602;2023-06-04T03:45:25;102084.19;;;14.45;52.88
50356;BME280;36264;51.296;-0.602;2023-06-04T03:47:51;102091.03;;;14.49;53.40
50356;BME280;36264;51.296;-0.602;2023-06-04T03:50:18;102097.00;;;14.56;53.03
50356;BME280;36264;51.296;-0.602;2023-06-04T03:52:44;102087.66;;;14.46;53.34
50356;BME280;36264;51.296;-0.602;2023-06-04T03:55:09;102088.59;;;14.43;53.42
50356;BME280;36264;51.296;-0.602;2023-06-04T03:57:36;102082.53;;;14.41;53.65
50356;BME280;36264;51.296;-0.602;2023-06-04T04:00:05;102085.03;;;14.46;53.83
50356;BME280;36264;51.296;-0.602;2023-06-04T04:02:31;102083.47;;;14.40;54.01
50356;BME280;36264;51.296;-0.602;2023-06-04T04:04:56;102088.72;;;14.39;53.76
50356;BME280;36264;51.296;-0.602;2023-06-04T04:07:22;102080.03;;;14.37;53.92
50356;BME280;36264;51.296;-0.602;2023-06-04T04:09:48;102087.88;;;14.37;54.09
50356;BME280;36264;51.296;-0.602;2023-06-04T04:12:13;102087.81;;;14.40;54.03
50356;BME280;36264;51.296;-0.602;2023-06-04T04:14:38;102086.09;;;14.39;54.32
50356;BME280;36264;51.296;-0.602;2023-06-04T04:17:04;102092.19;;;14.39;54.62
50356;BME280;36264;51.296;-0.602;2023-06-04T04:19:30;102085.19;;;14.40;54.56
50356;BME280;36264;51.296;-0.602;2023-06-04T04:21:55;102089.53;;;14.41;54.77
50356;BME280;36264;51.296;-0.602;2023-06-04T04:24:27;102090.03;;;14.55;54.96
50356;BME280;36264;51.296;-0.602;2023-06-04T04:26:53;102085.06;;;14.44;54.94
50356;BME280;36264;51.296;-0.602;2023-06-04T04:29:22;102082.19;;;14.55;54.93
50356;BME280;36264;51.296;-0.602;2023-06-04T04:31:51;102086.56;;;14.55;55.11
50356;BME280;36264;51.296;-0.602;2023-06-04T04:34:17;102091.28;;;14.40;55.21
50356;BME280;36264;51.296;-0.602;2023-06-04T04:36:45;102091.25;;;14.42;55.46
50356;BME280;36264;51.296;-0.602;2023-06-04T04:39:18;102088.22;;;14.57;55.28
50356;BME280;36264;51.296;-0.602;2023-06-04T04:41:44;102093.31;;;14.63;54.58
50356;BME280;36264;51.296;-0.602;2023-06-04T04:44:09;102084.97;;;14.49;55.87
50356;BME280;36264;51.296;-0.602;2023-06-04T04:46:35;102082.41;;;14.46;55.84
50356;BME280;36264;51.296;-0.602;2023-06-04T04:49:00;102091.03;;;14.49;55.67
50356;BME280;36264;51.296;-0.602;2023-06-04T04:51:25;102087.53;;;14.50;55.94
50356;BME280;36264;51.296;-0.602;2023-06-04T04:53:51;102090.03;;;14.55;55.63
50356;BME280;36264;51.296;-0.602;2023-06-04T04:56:16;102089.06;;;14.59;55.71
50356;BME280;36264;51.296;-0.602;2023-06-04T04:58:41;102082.75;;;14.68;55.61
50356;BME280;36264;51.296;-0.602;2023-06-04T05:01:07;102084.44;;;14.71;55.76
50356;BME280;36264;51.296;-0.602;2023-06-04T05:03:32;102080.91;;;14.72;56.00
50356;BME280;36264;51.296;-0.602;2023-06-04T05:05:58;102082.72;;;14.70;56.23
50356;BME280;36264;51.296;-0.602;2023-06-04T05:08:23;102083.50;;;14.72;55.97
50356;BME280;36264;51.296;-0.602;2023-06-04T05:10:50;102086.56;;;14.88;55.91
50356;BME280;36264;51.296;-0.602;2023-06-04T05:13:15;102085.81;;;14.84;56.65
50356;BME280;36264;51.296;-0.602;2023-06-04T05:15:41;102088.25;;;14.90;56.10
50356;BME280;36264;51.296;-0.602;2023-06-04T05:18:07;102079.47;;;14.93;56.07
50356;BME280;36264;51.296;-0.602;2023-06-04T05:20:33;102092.44;;;14.97;56.54
50356;BME280;36264;51.296;-0.602;2023-06-04T05:23:00;102094.06;;;15.00;56.36
50356;BME280;36264;51.296;-0.602;2023-06-04T05:25:25;102091.25;;;15.08;56.27
50356;BME280;36264;51.296;-0.602;2023-06-04T05:27:55;102096.34;;;15.12;56.07
50356;BME280;36264;51.296;-0.602;2023-06-04T05:30:21;102090.09;;;15.18;56.08
50356;BME280;36264;51.296;-0.602;2023-06-04T05:32:46;102084.66;;;15.24;55.95
50356;BME280;36264;51.296;-0.602;2023-06-04T05:35:12;102086.38;;;15.25;56.13
50356;BME280;36264;51.296;-0.602;2023-06-04T05:37:37;102088.75;;;15.34;56.28
50356;BME280;36264;51.296;-0.602;2023-06-04T05:40:05;102085.84;;;15.44;55.91
50356;BME280;36264;51.296;-0.602;2023-06-04T05:42:31;102090.91;;;15.50;55.78
50356;BME280;36264;51.296;-0.602;2023-06-04T05:44:57;102086.28;;;15.58;55.40
50356;BME280;36264;51.296;-0.602;2023-06-04T05:47:22;102090.50;;;15.62;55.74
50356;BME280;36264;51.296;-0.602;2023-06-04T05:49:47;102085.09;;;15.68;55.65
50356;BME280;36264;51.296;-0.602;2023-06-04T05:52:13;102090.06;;;15.78;55.78
50356;BME280;36264;51.296;-0.602;2023-06-04T05:54:38;102093.09;;;15.92;55.21
50356;BME280;36264;51.296;-0.602;2023-06-04T05:57:04;102089.16;;;16.07;54.76
50356;BME280;36264;51.296;-0.602;2023-06-04T05:59:30;102086.34;;;16.13;54.71
50356;BME280;36264;51.296;-0.602;2023-06-04T06:01:57;102094.84;;;16.20;54.76
50356;BME280;36264;51.296;-0.602;2023-06-04T06:04:22;102096.50;;;16.22;54.38
50356;BME280;36264;51.296;-0.602;2023-06-04T06:06:47;102086.56;;;16.32;54.02
50356;BME280;36264;51.296;-0.602;2023-06-04T06:09:14;102088.84;;;16.41;53.77
50356;BME280;36264;51.296;-0.602;2023-06-04T06:11:40;102082.63;;;16.45;53.78
50356;BME280;36264;51.296;-0.602;2023-06-04T06:14:06;102087.66;;;16.52;53.63
50356;BME280;36264;51.296;-0.602;2023-06-04T06:16:31;102095.41;;;16.55;53.34
50356;BME280;36264;51.296;-0.602;2023-06-04T06:18:58;102088.19;;;16.61;53.90
50356;BME280;36264;51.296;-0.602;2023-06-04T06:21:23;102094.28;;;16.62;54.63
50356;BME280;36264;51.296;-0.602;2023-06-04T06:23:49;102085.72;;;16.57;54.18
50356;BME280;36264;51.296;-0.602;2023-06-04T06:26:15;102100.19;;;16.69;53.70
50356;BME280;36264;51.296;-0.602;2023-06-04T06:28:41;102089.59;;;16.72;53.65
50356;BME280;36264;51.296;-0.602;2023-06-04T06:31:06;102096.97;;;16.86;53.07
50356;BME280;36264;51.296;-0.602;2023-06-04T06:33:32;102094.06;;;16.93;52.71
50356;BME280;36264;51.296;-0.602;2023-06-04T06:35:57;102095.53;;;17.02;52.59
50356;BME280;36264;51.296;-0.602;2023-06-04T06:38:25;102100.56;;;17.08;52.58
50356;BME280;36264;51.296;-0.602;2023-06-04T06:40:51;102089.75;;;17.16;52.37
50356;BME280;36264;51.296;-0.602;2023-06-04T06:43:17;102094.09;;;17.17;52.69
50356;BME280;36264;51.296;-0.602;2023-06-04T06:45:42;102105.31;;;17.20;52.41
50356;BME280;36264;51.296;-0.602;2023-06-04T06:48:07;102098.22;;;17.24;52.16
50356;BME280;36264;51.296;-0.602;2023-06-04T06:50:33;102101.41;;;17.32;52.15
50356;BME280;36264;51.296;-0.602;2023-06-04T06:53:01;102094.06;;;17.41;51.60
50356;BME280;36264;51.296;-0.602;2023-06-04T06:55:26;102098.25;;;17.46;51.61
50356;BME280;36264;51.296;-0.602;2023-06-04T06:57:52;102100.63;;;17.52;51.50
50356;BME280;36264;51.296;-0.602;2023-06-04T07:00:17;102088.13;;;17.59;51.62
50356;BME280;36264;51.296;-0.602;2023-06-04T07:02:43;102095.00;;;17.62;51.73
50356;BME280;36264;51.296;-0.602;2023-06-04T07:05:09;102095.63;;;17.68;51.31
50356;BME280;36264;51.296;-0.602;2023-06-04T07:07:34;102096.06;;;17.80;51.00
50356;BME280;36264;51.296;-0.602;2023-06-04T07:10:00;102089.94;;;17.79;51.40
50356;BME280;36264;51.296;-0.602;2023-06-04T07:12:26;102099.22;;;17.89;50.68
50356;BME280;36264;51.296;-0.602;2023-06-04T07:14:51;102103.53;;;17.90;50.31
50356;BME280;36264;51.296;-0.602;2023-06-04T07:17:16;102094.50;;;17.98;50.41
50356;BME280;36264;51.296;-0.602;2023-06-04T07:19:42;102107.16;;;18.10;49.92
50356;BME280;36264;51.296;-0.602;2023-06-04T07:22:07;102099.97;;;18.14;49.82
50356;BME280;36264;51.296;-0.602;2023-06-04T07:24:32;102102.47;;;18.17;49.68
50356;BME280;36264;51.296;-0.602;2023-06-04T07:26:58;102100.44;;;18.23;50.00
50356;BME280;36264;51.296;-0.602;2023-06-04T07:29:23;102102.88;;;18.28;49.98
50356;BME280;36264;51.296;-0.602;2023-06-04T07:31:49;102101.53;;;18.40;49.47
50356;BME280;36264;51.296;-0.602;2023-06-04T07:34:14;102105.34;;;18.53;49.23
50356;BME280;36264;51.296;-0.602;2023-06-04T07:36:40;102104.56;;;18.51;49.17
50356;BME280;36264;51.296;-0.602;2023-06-04T07:39:05;102102.50;;;18.58;49.29
50356;BME280;36264;51.296;-0.602;2023-06-04T07:41:30;102105.53;;;18.69;49.04
50356;BME280;36264;51.296;-0.602;2023-06-04T07:43:56;102112.00;;;18.81;48.78
50356;BME280;36264;51.296;-0.602;2023-06-04T07:46:21;102111.50;;;18.93;48.56
50356;BME280;36264;51.296;-0.602;2023-06-04T07:48:47;102107.63;;;19.02;48.53
50356;BME280;36264;51.296;-0.602;2023-06-04T07:51:13;102113.75;;;19.22;48.06
50356;BME280;36264;51.296;-0.602;2023-06-04T07:53:39;102107.00;;;19.16;47.99
50356;BME280;36264;51.296;-0.602;2023-06-04T07:56:05;102103.00;;;19.26;48.12
50356;BME280;36264;51.296;-0.602;2023-06-04T07:58:31;102090.81;;;19.24;47.82
50356;BME280;36264;51.296;-0.602;2023-06-04T08:00:56;102098.16;;;19.36;47.69
50356;BME280;36264;51.296;-0.602;2023-06-04T08:03:22;102095.03;;;19.47;47.65
50356;BME280;36264;51.296;-0.602;2023-06-04T08:05:48;102098.09;;;19.57;47.92
50356;BME280;36264;51.296;-0.602;2023-06-04T08:08:13;102092.53;;;19.63;47.19
50356;BME280;36264;51.296;-0.602;2023-06-04T08:10:39;102099.91;;;19.73;47.00
50356;BME280;36264;51.296;-0.602;2023-06-04T08:13:05;102108.41;;;19.80;46.72
50356;BME280;36264;51.296;-0.602;2023-06-04T08:15:30;102104.78;;;19.83;46.71
50356;BME280;36264;51.296;-0.602;2023-06-04T08:17:56;102104.56;;;19.87;46.29
50356;BME280;36264;51.296;-0.602;2023-06-04T08:20:21;102097.03;;;19.80;45.89
50356;BME280;36264;51.296;-0.602;2023-06-04T08:22:47;102091.75;;;19.80;46.07
50356;BME280;36264;51.296;-0.602;2023-06-04T08:25:12;102098.97;;;19.94;45.89
50356;BME280;36264;51.296;-0.602;2023-06-04T08:27:39;102104.97;;;20.15;46.08
50356;BME280;36264;51.296;-0.602;2023-06-04T08:30:05;102104.97;;;20.32;45.66
50356;BME280;36264;51.296;-0.602;2023-06-04T08:32:31;102103.50;;;20.26;45.38
50356;BME280;36264;51.296;-0.602;2023-06-04T08:34:56;102104.38;;;20.44;45.49
50356;BME280;36264;51.296;-0.602;2023-06-04T08:37:21;102102.19;;;20.53;45.20
50356;BME280;36264;51.296;-0.602;2023-06-04T08:39:49;102098.00;;;20.66;45.21
50356;BME280;36264;51.296;-0.602;2023-06-04T08:42:38;102102.50;;;20.97;44.67
50356;BME280;36264;51.296;-0.602;2023-06-04T08:45:11;102093.72;;;20.81;44.77
50356;BME280;36264;51.296;-0.602;2023-06-04T08:47:43;102103.69;;;20.92;44.77
50356;BME280;36264;51.296;-0.602;2023-06-04T08:50:10;102113.88;;;20.82;44.62
50356;BME280;36264;51.296;-0.602;2023-06-04T08:52:37;102103.69;;;20.92;44.52
50356;BME280;36264;51.296;-0.602;2023-06-04T08:55:03;102106.00;;;20.98;44.28
50356;BME280;36264;51.296;-0.602;2023-06-04T08:57:30;102105.59;;;21.06;44.16
50356;BME280;36264;51.296;-0.602;2023-06-04T08:59:56;102110.88;;;21.06;44.38
50356;BME280;36264;51.296;-0.602;2023-06-04T09:02:21;102111.38;;;21.12;44.26
50356;BME280;36264;51.296;-0.602;2023-06-04T09:04:47;102102.63;;;21.12;43.78
50356;BME280;36264;51.296;-0.602;2023-06-04T09:07:14;102106.31;;;21.41;44.21
50356;BME280;36264;51.296;-0.602;2023-06-04T09:09:40;102101.41;;;21.51;43.81
50356;BME280;36264;51.296;-0.602;2023-06-04T09:12:12;102106.59;;;21.52;43.81
50356;BME280;36264;51.296;-0.602;2023-06-04T09:14:42;102104.13;;;21.49;44.07
50356;BME280;36264;51.296;-0.602;2023-06-04T09:17:07;102108.53;;;21.65;43.70
50356;BME280;36264;51.296;-0.602;2023-06-04T09:19:32;102113.13;;;21.77;43.00
50356;BME280;36264;51.296;-0.602;2023-06-04T09:21:59;102102.13;;;21.85;42.87
50356;BME280;36264;51.296;-0.602;2023-06-04T09:24:44;102104.56;;;22.04;42.67
50356;BME280;36264;51.296;-0.602;2023-06-04T09:27:17;102106.53;;;22.00;42.56
50356;BME280;36264;51.296;-0.602;2023-06-04T09:29:53;102105.59;;;22.01;42.10
50356;BME280;36264;51.296;-0.602;2023-06-04T09:32:27;102107.13;;;22.05;42.55
50356;BME280;36264;51.296;-0.602;2023-06-04T09:35:07;102100.38;;;22.16;42.98
50356;BME280;36264;51.296;-0.602;2023-06-04T09:37:34;102112.47;;;22.20;42.83
50356;BME280;36264;51.296;-0.602;2023-06-04T09:39:59;102105.72;;;22.30;42.49
50356;BME280;36264;51.296;-0.602;2023-06-04T09:42:25;102087.72;;;22.21;42.43
50356;BME280;36264;51.296;-0.602;2023-06-04T09:44:50;102099.50;;;22.46;42.41
50356;BME280;36264;51.296;-0.602;2023-06-04T09:47:16;102106.97;;;22.53;42.39
50356;BME280;36264;51.296;-0.602;2023-06-04T09:49:50;102113.53;;;22.76;41.54
50356;BME280;36264;51.296;-0.602;2023-06-04T09:52:17;102107.97;;;22.67;41.99
50356;BME280;36264;51.296;-0.602;2023-06-04T09:54:43;102100.59;;;22.72;41.72
50356;BME280;36264;51.296;-0.602;2023-06-04T09:57:18;102109.19;;;22.90;41.28
50356;BME280;36264;51.296;-0.602;2023-06-04T09:59:49;102111.09;;;22.88;41.36
50356;BME280;36264;51.296;-0.602;2023-06-04T10:02:20;102113.81;;;22.86;41.59
50356;BME280;36264;51.296;-0.602;2023-06-04T10:04:49;102109.28;;;23.03;41.73
50356;BME280;36264;51.296;-0.602;2023-06-04T10:07:18;102106.63;;;23.03;41.36
50356;BME280;36264;51.296;-0.602;2023-06-04T10:09:44;102110.63;;;23.10;41.04
50356;BME280;36264;51.296;-0.602;2023-06-04T10:12:15;102110.72;;;23.23;41.07
50356;BME280;36264;51.296;-0.602;2023-06-04T10:14:47;102108.50;;;23.29;41.10
50356;BME280;36264;51.296;-0.602;2023-06-04T10:17:15;102108.06;;;23.23;41.21
50356;BME280;36264;51.296;-0.602;2023-06-04T10:19:43;102105.38;;;23.37;41.04
50356;BME280;36264;51.296;-0.602;2023-06-04T10:22:09;102106.72;;;23.44;41.08
50356;BME280;36264;51.296;-0.602;2023-06-04T10:24:37;102106.81;;;23.43;41.32
50356;BME280;36264;51.296;-0.602;2023-06-04T10:27:03;102101.91;;;23.64;41.09
50356;BME280;36264;51.296;-0.602;2023-06-04T10:29:35;102106.06;;;23.68;40.59
50356;BME280;36264;51.296;-0.602;2023-06-04T10:32:01;102109.44;;;23.84;40.71
50356;BME280;36264;51.296;-0.602;2023-06-04T10:34:26;102105.50;;;23.90;40.28
50356;BME280;36264;51.296;-0.602;2023-06-04T10:36:52;102097.53;;;24.04;40.39
50356;BME280;36264;51.296;-0.602;2023-06-04T10:39:31;102103.69;;;24.31;38.84
50356;BME280;36264;51.296;-0.602;2023-06-04T10:42:04;102105.09;;;24.23;39.61
50356;BME280;36264;51.296;-0.602;2023-06-04T10:44:30;102097.97;;;24.24;40.14
50356;BME280;36264;51.296;-0.602;2023-06-04T10:46:56;102101.69;;;24.47;39.63
50356;BME280;36264;51.296;-0.602;2023-06-04T10:49:29;102100.47;;;24.66;39.44
50356;BME280;36264;51.296;-0.602;2023-06-04T10:51:55;102101.31;;;24.66;39.94
50356;BME280;36264;51.296;-0.602;2023-06-04T10:54:25;102109.59;;;24.74;39.10
50356;BME280;36264;51.296;-0.602;2023-06-04T10:56:51;102095.56;;;24.72;38.95
50356;BME280;36264;51.296;-0.602;2023-06-04T10:59:18;102097.66;;;24.93;38.86
50356;BME280;36264;51.296;-0.602;2023-06-04T11:01:44;102108.81;;;25.11;39.07
50356;BME280;36264;51.296;-0.602;2023-06-04T11:04:25;102099.22;;;25.21;37.79
50356;BME280;36264;51.296;-0.602;2023-06-04T11:07:04;102100.41;;;25.30;37.50
50356;BME280;36264;51.296;-0.602;2023-06-04T11:09:34;102098.78;;;25.27;38.55
50356;BME280;36264;51.296;-0.602;2023-06-04T11:12:00;102108.38;;;25.30;37.97
50356;BME280;36264;51.296;-0.602;2023-06-04T11:14:26;102101.41;;;25.40;37.91
50356;BME280;36264;51.296;-0.602;2023-06-04T11:16:51;102098.47;;;25.56;37.21
50356;BME280;36264;51.296;-0.602;2023-06-04T11:19:17;102103.31;;;25.51;37.20
50356;BME280;36264;51.296;-0.602;2023-06-04T11:21:43;102103.13;;;25.65;37.48
50356;BME280;36264;51.296;-0.602;2023-06-04T11:24:08;102103.06;;;25.78;37.17
50356;BME280;36264;51.296;-0.602;2023-06-04T11:26:35;102108.88;;;25.83;36.58
50356;BME280;36264;51.296;-0.602;2023-06-04T11:29:07;102107.38;;;25.92;35.99
50356;BME280;36264;51.296;-0.602;2023-06-04T11:31:48;102101.03;;;26.06;35.16
50356;BME280;36264;51.296;-0.602;2023-06-04T11:36:50;102106.84;;;26.11;34.52
50356;BME280;36264;51.296;-0.602;2023-06-04T11:39:18;102100.38;;;26.27;35.92
50356;BME280;36264;51.296;-0.602;2023-06-04T11:41:44;102093.97;;;26.40;36.01
50356;BME280;36264;51.296;-0.602;2023-06-04T11:44:11;102081.53;;;26.52;34.86
50356;BME280;36264;51.296;-0.602;2023-06-04T11:46:43;102098.63;;;26.72;34.95
50356;BME280;36264;51.296;-0.602;2023-06-04T11:49:13;102090.00;;;26.57;34.78
50356;BME280;36264;51.296;-0.602;2023-06-04T11:51:46;102088.06;;;26.60;34.84
50356;BME280;36264;51.296;-0.602;2023-06-04T11:54:12;102079.69;;;26.53;35.70
50356;BME280;36264;51.296;-0.602;2023-06-04T11:56:38;102075.75;;;26.81;35.56
50356;BME280;36264;51.296;-0.602;2023-06-04T11:59:03;102076.59;;;27.04;35.57
50356;BME280;36264;51.296;-0.602;2023-06-04T12:01:30;102074.03;;;27.03;34.69
50356;BME280;36264;51.296;-0.602;2023-06-04T12:03:57;102069.31;;;27.06;34.69
50356;BME280;36264;51.296;-0.602;2023-06-04T12:06:23;102067.06;;;27.23;34.74
50356;BME280;36264;51.296;-0.602;2023-06-04T12:08:53;102063.34;;;27.58;33.67
50356;BME280;36264;51.296;-0.602;2023-06-04T12:13:52;102059.03;;;27.78;34.32
50356;BME280;36264;51.296;-0.602;2023-06-04T12:16:18;102067.25;;;27.86;34.02
50356;BME280;36264;51.296;-0.602;2023-06-04T12:18:43;102053.44;;;27.81;33.97
50356;BME280;36264;51.296;-0.602;2023-06-04T12:21:22;102058.53;;;27.84;30.96
50356;BME280;36264;51.296;-0.602;2023-06-04T12:23:53;102061.06;;;27.86;33.77
50356;BME280;36264;51.296;-0.602;2023-06-04T12:26:23;102058.25;;;27.98;34.00
50356;BME280;36264;51.296;-0.602;2023-06-04T12:29:23;102050.13;;;28.31;31.73
50356;BME280;36264;51.296;-0.602;2023-06-04T12:31:48;102047.00;;;28.26;33.83
50356;BME280;36264;51.296;-0.602;2023-06-04T12:34:14;102051.06;;;28.51;33.79
50356;BME280;36264;51.296;-0.602;2023-06-04T12:36:39;102050.47;;;28.37;30.92
50356;BME280;36264;51.296;-0.602;2023-06-04T12:39:06;102051.34;;;27.84;33.87
50356;BME280;36264;51.296;-0.602;2023-06-04T12:41:32;102055.47;;;27.56;34.31
50356;BME280;36264;51.296;-0.602;2023-06-04T12:44:01;102050.47;;;27.19;34.77